sensor_id;sensor_type;location;lat;lon;timestamp;P1;durP1;ratioP1;P2;durP2;ratioP2
2177;SDS011;1095;50.992;6.798;2023-05-19T00:01:10;9.95;;;6.68;;
2177;SDS011;1095;50.992;6.798;2023-05-19T00:03:43;18.85;;;7.63;;
2177;SDS011;1095;50.992;6.798;2023-05-19T00:06:16;13.52;;;8.13;;
2177;SDS011;1095;50.992;6.798;2023-05-19T00:08:47;11.98;;;7.28;;
2177;SDS011;1095;50.992;6.798;2023-05-19T00:11:16;15.38;;;7.20;;
2177;SDS011;1095;50.992;6.798;2023-05-19T00:13:43;14.70;;;7.15;;
2177;SDS011;1095;50.992;6.798;2023-05-19T00:16:13;13.02;;;7.35;;
2177;SDS011;1095;50.992;6.798;2023-05-19T00:18:40;13.98;;;7.18;;
2177;SDS011;1095;50.992;6.798;2023-05-19T00:21:07;10.82;;;6.80;;
2177;SDS011;1095;50.992;6.798;2023-05-19T00:23:34;13.63;;;7.38;;
2177;SDS011;1095;50.992;6.798;2023-05-19T00:26:00;11.25;;;6.78;;
2177;SDS011;1095;50.992;6.798;2023-05-19T00:28:28;18.52;;;7.13;;
2177;SDS011;1095;50.992;6.798;2023-05-19T00:30:55;10.77;;;6.50;;
2177;SDS011;1095;50.992;6.798;2023-05-19T00:33:21;11.50;;;7.00;;
2177;SDS011;1095;50.992;6.798;2023-05-19T00:38:16;10.60;;;7.20;;
2177;SDS011;1095;50.992;6.798;2023-05-19T00:40:42;13.48;;;7.88;;
2177;SDS011;1095;50.992;6.798;2023-05-19T00:43:09;15.18;;;7.82;;
2177;SDS011;1095;50.992;6.798;2023-05-19T00:45:37;14.35;;;7.03;;
2177;SDS011;1095;50.992;6.798;2023-05-19T00:48:04;10.25;;;7.07;;
2177;SDS011;1095;50.992;6.798;2023-05-19T00:52:58;12.73;;;7.30;;
2177;SDS011;1095;50.992;6.798;2023-05-19T00:55:25;14.10;;;7.88;;
2177;SDS011;1095;50.992;6.798;2023-05-19T00:57:54;12.15;;;7.28;;
2177;SDS011;1095;50.992;6.798;2023-05-19T01:00:22;15.43;;;7.32;;
2177;SDS011;1095;50.992;6.798;2023-05-19T01:02:50;12.43;;;7.63;;
2177;SDS011;1095;50.992;6.798;2023-05-19T01:05:18;13.10;;;7.50;;
2177;SDS011;1095;50.992;6.798;2023-05-19T01:07:44;14.98;;;8.45;;
2177;SDS011;1095;50.992;6.798;2023-05-19T01:10:15;17.83;;;8.07;;
2177;SDS011;1095;50.992;6.798;2023-05-19T01:12:42;15.27;;;8.52;;
2177;SDS011;1095;50.992;6.798;2023-05-19T01:15:09;12.07;;;7.82;;
2177;SDS011;1095;50.992;6.798;2023-05-19T01:17:39;14.55;;;8.18;;
2177;SDS011;1095;50.992;6.798;2023-05-19T01:20:15;13.27;;;7.97;;
2177;SDS011;1095;50.992;6.798;2023-05-19T01:22:59;11.20;;;8.20;;
2177;SDS011;1095;50.992;6.798;2023-05-19T01:26:03;17.00;;;8.02;;
2177;SDS011;1095;50.992;6.798;2023-05-19T01:31:49;12.85;;;7.45;;
2177;SDS011;1095;50.992;6.798;2023-05-19T01:34:17;14.93;;;8.25;;
2177;SDS011;1095;50.992;6.798;2023-05-19T01:36:47;17.38;;;8.52;;
2177;SDS011;1095;50.992;6.798;2023-05-19T01:39:16;13.18;;;7.88;;
2177;SDS011;1095;50.992;6.798;2023-05-19T01:41:43;10.02;;;7.50;;
2177;SDS011;1095;50.992;6.798;2023-05-19T01:44:11;17.15;;;8.32;;
2177;SDS011;1095;50.992;6.798;2023-05-19T01:46:40;13.23;;;8.40;;
2177;SDS011;1095;50.992;6.798;2023-05-19T01:49:08;15.48;;;8.70;;
2177;SDS011;1095;50.992;6.798;2023-05-19T01:51:35;13.52;;;8.63;;
2177;SDS011;1095;50.992;6.798;2023-05-19T01:54:02;13.82;;;8.63;;
2177;SDS011;1095;50.992;6.798;2023-05-19T01:56:31;13.15;;;9.27;;
2177;SDS011;1095;50.992;6.798;2023-05-19T01:59:08;13.77;;;8.35;;
2177;SDS011;1095;50.992;6.798;2023-05-19T02:01:47;14.50;;;8.13;;
2177;SDS011;1095;50.992;6.798;2023-05-19T02:06:52;11.75;;;8.35;;
2177;SDS011;1095;50.992;6.798;2023-05-19T02:09:29;13.40;;;8.93;;
2177;SDS011;1095;50.992;6.798;2023-05-19T02:12:05;13.52;;;8.45;;
2177;SDS011;1095;50.992;6.798;2023-05-19T02:14:38;20.20;;;7.97;;
2177;SDS011;1095;50.992;6.798;2023-05-19T02:17:10;15.07;;;8.35;;
2177;SDS011;1095;50.992;6.798;2023-05-19T02:19:41;18.10;;;8.38;;
2177;SDS011;1095;50.992;6.798;2023-05-19T02:22:08;18.58;;;8.73;;
2177;SDS011;1095;50.992;6.798;2023-05-19T02:24:35;11.60;;;7.88;;
2177;SDS011;1095;50.992;6.798;2023-05-19T02:27:03;13.73;;;8.50;;
2177;SDS011;1095;50.992;6.798;2023-05-19T02:29:31;16.10;;;8.55;;
2177;SDS011;1095;50.992;6.798;2023-05-19T02:31:57;13.93;;;8.68;;
2177;SDS011;1095;50.992;6.798;2023-05-19T02:34:25;12.88;;;8.35;;
2177;SDS011;1095;50.992;6.798;2023-05-19T02:36:53;12.82;;;8.48;;
2177;SDS011;1095;50.992;6.798;2023-05-19T02:39:20;17.23;;;8.40;;
2177;SDS011;1095;50.992;6.798;2023-05-19T02:41:47;14.07;;;8.30;;
2177;SDS011;1095;50.992;6.798;2023-05-19T02:44:13;15.32;;;8.75;;
2177;SDS011;1095;50.992;6.798;2023-05-19T02:46:40;14.63;;;8.93;;
2177;SDS011;1095;50.992;6.798;2023-05-19T02:49:06;11.57;;;8.85;;
2177;SDS011;1095;50.992;6.798;2023-05-19T02:51:33;15.35;;;8.80;;
2177;SDS011;1095;50.992;6.798;2023-05-19T02:54:01;16.17;;;9.00;;
2177;SDS011;1095;50.992;6.798;2023-05-19T02:56:28;20.17;;;9.40;;
2177;SDS011;1095;50.992;6.798;2023-05-19T02:58:54;12.98;;;8.98;;
2177;SDS011;1095;50.992;6.798;2023-05-19T03:01:22;12.80;;;9.20;;
2177;SDS011;1095;50.992;6.798;2023-05-19T03:03:49;12.98;;;8.98;;
2177;SDS011;1095;50.992;6.798;2023-05-19T03:06:15;14.68;;;9.30;;
2177;SDS011;1095;50.992;6.798;2023-05-19T03:08:42;18.90;;;9.35;;
2177;SDS011;1095;50.992;6.798;2023-05-19T03:11:10;14.45;;;8.40;;
2177;SDS011;1095;50.992;6.798;2023-05-19T03:13:36;18.40;;;9.02;;
2177;SDS011;1095;50.992;6.798;2023-05-19T03:16:03;18.63;;;9.35;;
2177;SDS011;1095;50.992;6.798;2023-05-19T03:18:32;15.55;;;8.50;;
2177;SDS011;1095;50.992;6.798;2023-05-19T03:20:58;14.73;;;8.85;;
2177;SDS011;1095;50.992;6.798;2023-05-19T03:23:25;14.52;;;8.93;;
2177;SDS011;1095;50.992;6.798;2023-05-19T03:25:52;16.77;;;8.70;;
2177;SDS011;1095;50.992;6.798;2023-05-19T03:28:21;13.05;;;9.30;;
2177;SDS011;1095;50.992;6.798;2023-05-19T03:30:48;15.23;;;10.10;;
2177;SDS011;1095;50.992;6.798;2023-05-19T03:33:15;17.42;;;9.60;;
2177;SDS011;1095;50.992;6.798;2023-05-19T03:35:41;18.60;;;10.50;;
2177;SDS011;1095;50.992;6.798;2023-05-19T03:38:08;13.52;;;9.68;;
2177;SDS011;1095;50.992;6.798;2023-05-19T03:40:35;12.50;;;9.00;;
2177;SDS011;1095;50.992;6.798;2023-05-19T03:43:02;14.60;;;8.85;;
2177;SDS011;1095;50.992;6.798;2023-05-19T03:45:30;17.67;;;9.95;;
2177;SDS011;1095;50.992;6.798;2023-05-19T03:47:56;14.57;;;9.38;;
2177;SDS011;1095;50.992;6.798;2023-05-19T03:50:23;16.00;;;9.50;;
2177;SDS011;1095;50.992;6.798;2023-05-19T03:52:53;18.52;;;10.38;;
2177;SDS011;1095;50.992;6.798;2023-05-19T03:55:19;13.60;;;9.18;;
2177;SDS011;1095;50.992;6.798;2023-05-19T03:57:46;15.27;;;9.38;;
2177;SDS011;1095;50.992;6.798;2023-05-19T04:00:13;19.05;;;9.38;;
2177;SDS011;1095;50.992;6.798;2023-05-19T04:02:42;16.70;;;9.95;;
2177;SDS011;1095;50.992;6.798;2023-05-19T04:05:08;16.67;;;9.93;;
2177;SDS011;1095;50.992;6.798;2023-05-19T04:07:35;15.15;;;9.45;;
2177;SDS011;1095;50.992;6.798;2023-05-19T04:10:02;17.48;;;8.85;;
2177;SDS011;1095;50.992;6.798;2023-05-19T04:12:30;14.32;;;8.82;;
2177;SDS011;1095;50.992;6.798;2023-05-19T04:14:57;14.88;;;9.00;;
2177;SDS011;1095;50.992;6.798;2023-05-19T04:17:23;13.40;;;9.00;;
2177;SDS011;1095;50.992;6.798;2023-05-19T04:19:52;16.15;;;8.70;;
2177;SDS011;1095;50.992;6.798;2023-05-19T04:22:19;16.10;;;8.70;;
2177;SDS011;1095;50.992;6.798;2023-05-19T04:24:45;13.02;;;7.95;;
2177;SDS011;1095;50.992;6.798;2023-05-19T04:27:12;13.25;;;8.35;;
2177;SDS011;1095;50.992;6.798;2023-05-19T04:29:40;13.20;;;8.07;;
2177;SDS011;1095;50.992;6.798;2023-05-19T04:32:07;15.63;;;7.95;;
2177;SDS011;1095;50.992;6.798;2023-05-19T04:34:34;15.40;;;8.35;;
2177;SDS011;1095;50.992;6.798;2023-05-19T04:37:05;14.27;;;8.05;;
2177;SDS011;1095;50.992;6.798;2023-05-19T04:39:34;9.77;;;7.57;;
2177;SDS011;1095;50.992;6.798;2023-05-19T04:45:30;17.30;;;8.57;;
2177;SDS011;1095;50.992;6.798;2023-05-19T04:48:16;12.65;;;9.05;;
2177;SDS011;1095;50.992;6.798;2023-05-19T04:50:43;11.63;;;7.43;;
2177;SDS011;1095;50.992;6.798;2023-05-19T04:53:11;11.15;;;7.65;;
2177;SDS011;1095;50.992;6.798;2023-05-19T04:55:38;14.75;;;7.28;;
2177;SDS011;1095;50.992;6.798;2023-05-19T04:58:05;12.43;;;7.60;;
2177;SDS011;1095;50.992;6.798;2023-05-19T05:00:32;14.35;;;7.50;;
2177;SDS011;1095;50.992;6.798;2023-05-19T05:02:59;11.30;;;7.70;;
2177;SDS011;1095;50.992;6.798;2023-05-19T05:05:29;11.75;;;7.35;;
2177;SDS011;1095;50.992;6.798;2023-05-19T05:07:56;13.15;;;7.57;;
2177;SDS011;1095;50.992;6.798;2023-05-19T05:10:24;11.43;;;7.35;;
2177;SDS011;1095;50.992;6.798;2023-05-19T05:12:51;13.65;;;7.60;;
2177;SDS011;1095;50.992;6.798;2023-05-19T05:15:18;11.45;;;7.53;;
2177;SDS011;1095;50.992;6.798;2023-05-19T05:17:46;11.23;;;7.50;;
2177;SDS011;1095;50.992;6.798;2023-05-19T05:20:13;13.00;;;7.40;;
2177;SDS011;1095;50.992;6.798;2023-05-19T05:22:41;11.27;;;6.55;;
2177;SDS011;1095;50.992;6.798;2023-05-19T05:25:09;13.82;;;6.75;;
2177;SDS011;1095;50.992;6.798;2023-05-19T05:27:38;9.35;;;6.50;;
2177;SDS011;1095;50.992;6.798;2023-05-19T05:30:05;12.82;;;6.95;;
2177;SDS011;1095;50.992;6.798;2023-05-19T05:32:32;11.65;;;7.32;;
2177;SDS011;1095;50.992;6.798;2023-05-19T05:34:59;14.10;;;7.60;;
2177;SDS011;1095;50.992;6.798;2023-05-19T05:37:26;8.02;;;6.60;;
2177;SDS011;1095;50.992;6.798;2023-05-19T05:39:52;10.77;;;6.97;;
2177;SDS011;1095;50.992;6.798;2023-05-19T05:42:19;11.68;;;6.05;;
2177;SDS011;1095;50.992;6.798;2023-05-19T05:44:47;12.40;;;6.57;;
2177;SDS011;1095;50.992;6.798;2023-05-19T05:47:14;9.40;;;5.80;;
2177;SDS011;1095;50.992;6.798;2023-05-19T05:49:41;11.43;;;6.05;;
2177;SDS011;1095;50.992;6.798;2023-05-19T05:52:09;12.25;;;6.32;;
2177;SDS011;1095;50.992;6.798;2023-05-19T05:54:37;10.98;;;6.05;;
2177;SDS011;1095;50.992;6.798;2023-05-19T05:57:04;10.93;;;5.85;;
2177;SDS011;1095;50.992;6.798;2023-05-19T05:59:32;8.82;;;6.35;;
2177;SDS011;1095;50.992;6.798;2023-05-19T06:02:00;8.38;;;6.00;;
2177;SDS011;1095;50.992;6.798;2023-05-19T06:04:27;10.52;;;6.65;;
2177;SDS011;1095;50.992;6.798;2023-05-19T06:06:53;9.75;;;5.60;;
2177;SDS011;1095;50.992;6.798;2023-05-19T06:09:24;9.95;;;5.47;;
2177;SDS011;1095;50.992;6.798;2023-05-19T06:11:51;7.15;;;5.05;;
2177;SDS011;1095;50.992;6.798;2023-05-19T06:14:18;9.52;;;5.28;;
2177;SDS011;1095;50.992;6.798;2023-05-19T06:16:44;10.85;;;5.90;;
2177;SDS011;1095;50.992;6.798;2023-05-19T06:19:14;11.05;;;5.25;;
2177;SDS011;1095;50.992;6.798;2023-05-19T06:21:41;7.18;;;4.75;;
2177;SDS011;1095;50.992;6.798;2023-05-19T06:24:08;13.90;;;5.75;;
2177;SDS011;1095;50.992;6.798;2023-05-19T06:26:34;11.73;;;5.40;;
2177;SDS011;1095;50.992;6.798;2023-05-19T06:29:01;9.82;;;5.10;;
2177;SDS011;1095;50.992;6.798;2023-05-19T06:31:28;8.40;;;5.40;;
2177;SDS011;1095;50.992;6.798;2023-05-19T06:33:55;9.73;;;5.30;;
2177;SDS011;1095;50.992;6.798;2023-05-19T06:36:23;11.27;;;5.45;;
2177;SDS011;1095;50.992;6.798;2023-05-19T06:38:50;11.55;;;5.90;;
2177;SDS011;1095;50.992;6.798;2023-05-19T06:41:18;9.10;;;5.65;;
2177;SDS011;1095;50.992;6.798;2023-05-19T06:43:45;13.30;;;5.43;;
2177;SDS011;1095;50.992;6.798;2023-05-19T06:46:12;8.55;;;4.97;;
2177;SDS011;1095;50.992;6.798;2023-05-19T06:48:38;10.13;;;5.57;;
2177;SDS011;1095;50.992;6.798;2023-05-19T06:51:05;16.27;;;5.22;;
2177;SDS011;1095;50.992;6.798;2023-05-19T06:53:35;13.02;;;6.35;;
2177;SDS011;1095;50.992;6.798;2023-05-19T06:56:02;12.05;;;5.30;;
2177;SDS011;1095;50.992;6.798;2023-05-19T06:58:29;10.25;;;5.45;;
2177;SDS011;1095;50.992;6.798;2023-05-19T07:00:55;8.65;;;5.35;;
2177;SDS011;1095;50.992;6.798;2023-05-19T07:03:22;8.52;;;5.28;;
2177;SDS011;1095;50.992;6.798;2023-05-19T07:05:48;10.73;;;5.47;;
2177;SDS011;1095;50.992;6.798;2023-05-19T07:08:15;10.15;;;4.70;;
2177;SDS011;1095;50.992;6.798;2023-05-19T07:10:43;8.15;;;5.20;;
2177;SDS011;1095;50.992;6.798;2023-05-19T07:13:10;9.98;;;5.32;;
2177;SDS011;1095;50.992;6.798;2023-05-19T07:15:36;11.02;;;5.45;;
2177;SDS011;1095;50.992;6.798;2023-05-19T07:18:03;9.13;;;5.22;;
2177;SDS011;1095;50.992;6.798;2023-05-19T07:20:29;9.70;;;5.10;;
2177;SDS011;1095;50.992;6.798;2023-05-19T07:22:56;7.82;;;4.28;;
2177;SDS011;1095;50.992;6.798;2023-05-19T07:25:23;7.85;;;4.38;;
2177;SDS011;1095;50.992;6.798;2023-05-19T07:27:52;7.45;;;4.70;;
2177;SDS011;1095;50.992;6.798;2023-05-19T07:30:19;8.70;;;4.40;;
2177;SDS011;1095;50.992;6.798;2023-05-19T07:32:45;7.95;;;4.40;;
2177;SDS011;1095;50.992;6.798;2023-05-19T07:35:12;8.13;;;4.35;;
2177;SDS011;1095;50.992;6.798;2023-05-19T07:37:38;11.90;;;4.30;;
2177;SDS011;1095;50.992;6.798;2023-05-19T07:40:06;9.30;;;3.67;;
2177;SDS011;1095;50.992;6.798;2023-05-19T07:42:33;9.07;;;3.88;;
2177;SDS011;1095;50.992;6.798;2023-05-19T07:45:01;11.27;;;4.30;;
2177;SDS011;1095;50.992;6.798;2023-05-19T07:47:28;11.23;;;4.03;;
2177;SDS011;1095;50.992;6.798;2023-05-19T07:49:55;9.10;;;4.00;;
2177;SDS011;1095;50.992;6.798;2023-05-19T07:52:21;6.82;;;3.75;;
2177;SDS011;1095;50.992;6.798;2023-05-19T07:54:48;8.90;;;3.95;;
2177;SDS011;1095;50.992;6.798;2023-05-19T07:57:14;9.95;;;4.00;;
2177;SDS011;1095;50.992;6.798;2023-05-19T07:59:42;9.95;;;3.35;;
2177;SDS011;1095;50.992;6.798;2023-05-19T08:02:11;10.68;;;3.90;;
2177;SDS011;1095;50.992;6.798;2023-05-19T08:04:37;7.60;;;4.13;;
2177;SDS011;1095;50.992;6.798;2023-05-19T08:07:04;8.80;;;4.20;;
2177;SDS011;1095;50.992;6.798;2023-05-19T08:09:30;6.90;;;3.88;;
2177;SDS011;1095;50.992;6.798;2023-05-19T08:11:57;10.43;;;4.32;;
2177;SDS011;1095;50.992;6.798;2023-05-19T08:14:25;6.57;;;3.70;;
2177;SDS011;1095;50.992;6.798;2023-05-19T08:16:52;11.90;;;4.30;;
2177;SDS011;1095;50.992;6.798;2023-05-19T09:52:43;7.30;;;3.80;;
2177;SDS011;1095;50.992;6.798;2023-05-19T09:55:10;10.75;;;4.28;;
2177;SDS011;1095;50.992;6.798;2023-05-19T10:00:06;6.45;;;3.65;;
2177;SDS011;1095;50.992;6.798;2023-05-19T10:02:41;8.27;;;3.70;;
2177;SDS011;1095;50.992;6.798;2023-05-19T10:05:09;8.57;;;3.80;;
2177;SDS011;1095;50.992;6.798;2023-05-19T10:07:38;9.23;;;3.90;;
2177;SDS011;1095;50.992;6.798;2023-05-19T10:10:08;8.85;;;4.05;;
2177;SDS011;1095;50.992;6.798;2023-05-19T10:12:36;10.25;;;4.38;;
2177;SDS011;1095;50.992;6.798;2023-05-19T10:15:04;9.13;;;3.53;;
2177;SDS011;1095;50.992;6.798;2023-05-19T10:17:34;9.23;;;4.20;;
2177;SDS011;1095;50.992;6.798;2023-05-19T10:20:05;9.30;;;4.22;;
2177;SDS011;1095;50.992;6.798;2023-05-19T10:22:34;9.43;;;3.88;;
2177;SDS011;1095;50.992;6.798;2023-05-19T10:25:01;7.47;;;3.80;;
2177;SDS011;1095;50.992;6.798;2023-05-19T10:27:27;15.68;;;4.32;;
2177;SDS011;1095;50.992;6.798;2023-05-19T10:29:57;10.90;;;4.50;;
2177;SDS011;1095;50.992;6.798;2023-05-19T10:32:27;5.68;;;3.55;;
2177;SDS011;1095;50.992;6.798;2023-05-19T10:35:02;6.65;;;4.00;;
2177;SDS011;1095;50.992;6.798;2023-05-19T10:37:58;12.50;;;3.90;;
2177;SDS011;1095;50.992;6.798;2023-05-19T10:40:36;9.02;;;3.88;;
2177;SDS011;1095;50.992;6.798;2023-05-19T10:43:14;9.10;;;3.95;;
2177;SDS011;1095;50.992;6.798;2023-05-19T10:45:46;8.35;;;3.78;;
2177;SDS011;1095;50.992;6.798;2023-05-19T10:48:14;8.45;;;3.78;;
2177;SDS011;1095;50.992;6.798;2023-05-19T10:50:43;6.05;;;3.78;;
2177;SDS011;1095;50.992;6.798;2023-05-19T10:53:14;9.77;;;3.88;;
2177;SDS011;1095;50.992;6.798;2023-05-19T10:55:45;10.23;;;4.00;;
2177;SDS011;1095;50.992;6.798;2023-05-19T10:58:21;7.63;;;4.10;;
2177;SDS011;1095;50.992;6.798;2023-05-19T11:01:05;6.05;;;3.55;;
2177;SDS011;1095;50.992;6.798;2023-05-19T11:03:41;6.82;;;3.67;;
2177;SDS011;1095;50.992;6.798;2023-05-19T11:06:17;8.98;;;4.20;;
2177;SDS011;1095;50.992;6.798;2023-05-19T11:08:45;15.13;;;4.10;;
2177;SDS011;1095;50.992;6.798;2023-05-19T11:11:13;8.20;;;3.40;;
2177;SDS011;1095;50.992;6.798;2023-05-19T11:13:41;9.18;;;3.83;;
2177;SDS011;1095;50.992;6.798;2023-05-19T11:16:11;6.70;;;3.93;;
2177;SDS011;1095;50.992;6.798;2023-05-19T11:18:38;8.40;;;4.07;;
2177;SDS011;1095;50.992;6.798;2023-05-19T11:21:05;9.05;;;3.80;;
2177;SDS011;1095;50.992;6.798;2023-05-19T11:23:33;7.10;;;3.65;;
2177;SDS011;1095;50.992;6.798;2023-05-19T11:26:04;8.77;;;4.00;;
2177;SDS011;1095;50.992;6.798;2023-05-19T11:28:32;5.63;;;3.75;;
2177;SDS011;1095;50.992;6.798;2023-05-19T11:30:59;8.13;;;4.00;;
2177;SDS011;1095;50.992;6.798;2023-05-19T11:33:26;7.20;;;3.80;;
2177;SDS011;1095;50.992;6.798;2023-05-19T11:35:55;6.32;;;3.67;;
2177;SDS011;1095;50.992;6.798;2023-05-19T11:38:23;8.30;;;3.72;;
2177;SDS011;1095;50.992;6.798;2023-05-19T11:40:52;6.13;;;3.80;;
2177;SDS011;1095;50.992;6.798;2023-05-19T11:43:21;10.23;;;4.55;;
2177;SDS011;1095;50.992;6.798;2023-05-19T11:45:48;7.63;;;3.78;;
2177;SDS011;1095;50.992;6.798;2023-05-19T11:48:15;9.88;;;3.95;;
2177;SDS011;1095;50.992;6.798;2023-05-19T11:50:42;8.43;;;3.70;;
2177;SDS011;1095;50.992;6.798;2023-05-19T11:53:10;9.52;;;3.78;;
2177;SDS011;1095;50.992;6.798;2023-05-19T11:55:40;7.55;;;3.95;;
2177;SDS011;1095;50.992;6.798;2023-05-19T11:58:10;13.52;;;4.60;;
2177;SDS011;1095;50.992;6.798;2023-05-19T12:00:37;10.93;;;3.85;;
2177;SDS011;1095;50.992;6.798;2023-05-19T12:03:05;5.75;;;3.45;;
2177;SDS011;1095;50.992;6.798;2023-05-19T12:05:32;9.18;;;4.40;;
2177;SDS011;1095;50.992;6.798;2023-05-19T12:08:01;7.68;;;3.70;;
2177;SDS011;1095;50.992;6.798;2023-05-19T12:10:29;5.82;;;3.38;;
2177;SDS011;1095;50.992;6.798;2023-05-19T12:12:57;5.40;;;3.80;;
2177;SDS011;1095;50.992;6.798;2023-05-19T12:15:26;7.85;;;3.50;;
2177;SDS011;1095;50.992;6.798;2023-05-19T12:17:55;6.88;;;3.83;;
2177;SDS011;1095;50.992;6.798;2023-05-19T12:20:23;7.00;;;3.40;;
2177;SDS011;1095;50.992;6.798;2023-05-19T12:22:50;7.45;;;3.92;;
2177;SDS011;1095;50.992;6.798;2023-05-19T12:25:17;6.28;;;3.63;;
2177;SDS011;1095;50.992;6.798;2023-05-19T12:27:45;6.72;;;3.83;;
2177;SDS011;1095;50.992;6.798;2023-05-19T12:30:12;8.18;;;4.20;;
2177;SDS011;1095;50.992;6.798;2023-05-19T12:32:40;7.50;;;3.88;;
2177;SDS011;1095;50.992;6.798;2023-05-19T12:35:08;7.53;;;3.92;;
2177;SDS011;1095;50.992;6.798;2023-05-19T12:37:39;6.72;;;3.60;;
2177;SDS011;1095;50.992;6.798;2023-05-19T12:40:07;9.38;;;4.22;;
2177;SDS011;1095;50.992;6.798;2023-05-19T12:42:35;8.25;;;4.00;;
2177;SDS011;1095;50.992;6.798;2023-05-19T12:45:02;6.40;;;3.60;;
2177;SDS011;1095;50.992;6.798;2023-05-19T12:47:30;6.70;;;3.78;;
2177;SDS011;1095;50.992;6.798;2023-05-19T12:50:03;8.23;;;3.65;;
2177;SDS011;1095;50.992;6.798;2023-05-19T12:52:32;7.30;;;3.92;;
2177;SDS011;1095;50.992;6.798;2023-05-19T12:55:00;5.65;;;3.65;;
2177;SDS011;1095;50.992;6.798;2023-05-19T12:57:29;6.70;;;3.78;;
2177;SDS011;1095;50.992;6.798;2023-05-19T13:00:00;6.70;;;3.55;;
2177;SDS011;1095;50.992;6.798;2023-05-19T13:02:31;10.40;;;4.07;;
2177;SDS011;1095;50.992;6.798;2023-05-19T13:04:59;9.65;;;3.90;;
2177;SDS011;1095;50.992;6.798;2023-05-19T13:07:27;7.38;;;3.67;;
2177;SDS011;1095;50.992;6.798;2023-05-19T13:09:53;7.50;;;3.88;;
2177;SDS011;1095;50.992;6.798;2023-05-19T13:12:20;8.27;;;3.88;;
2177;SDS011;1095;50.992;6.798;2023-05-19T13:14:47;8.57;;;3.97;;
2177;SDS011;1095;50.992;6.798;2023-05-19T13:17:13;8.32;;;3.92;;
2177;SDS011;1095;50.992;6.798;2023-05-19T13:19:40;7.38;;;3.50;;
2177;SDS011;1095;50.992;6.798;2023-05-19T13:22:07;7.68;;;3.97;;
2177;SDS011;1095;50.992;6.798;2023-05-19T13:24:35;10.07;;;4.28;;
2177;SDS011;1095;50.992;6.798;2023-05-19T13:27:01;7.72;;;4.28;;
2177;SDS011;1095;50.992;6.798;2023-05-19T13:29:29;9.05;;;4.00;;
2177;SDS011;1095;50.992;6.798;2023-05-19T13:31:56;8.70;;;4.38;;
2177;SDS011;1095;50.992;6.798;2023-05-19T13:34:23;7.72;;;3.88;;
2177;SDS011;1095;50.992;6.798;2023-05-19T13:36:50;6.10;;;3.75;;
2177;SDS011;1095;50.992;6.798;2023-05-19T13:39:17;7.00;;;3.88;;
2177;SDS011;1095;50.992;6.798;2023-05-19T13:41:45;6.70;;;4.05;;
2177;SDS011;1095;50.992;6.798;2023-05-19T13:44:11;11.52;;;4.05;;
2177;SDS011;1095;50.992;6.798;2023-05-19T13:46:38;10.20;;;3.90;;
2177;SDS011;1095;50.992;6.798;2023-05-19T13:49:05;8.85;;;4.07;;
2177;SDS011;1095;50.992;6.798;2023-05-19T13:51:31;7.55;;;4.28;;
2177;SDS011;1095;50.992;6.798;2023-05-19T13:53:58;8.25;;;4.10;;
2177;SDS011;1095;50.992;6.798;2023-05-19T13:56:24;9.43;;;4.20;;
2177;SDS011;1095;50.992;6.798;2023-05-19T13:58:53;9.77;;;3.95;;
2177;SDS011;1095;50.992;6.798;2023-05-19T14:01:20;8.93;;;3.92;;
2177;SDS011;1095;50.992;6.798;2023-05-19T14:03:47;8.45;;;3.85;;
2177;SDS011;1095;50.992;6.798;2023-05-19T14:06:14;5.70;;;3.78;;
2177;SDS011;1095;50.992;6.798;2023-05-19T14:08:41;7.18;;;4.00;;
2177;SDS011;1095;50.992;6.798;2023-05-19T14:11:07;7.57;;;4.18;;
2177;SDS011;1095;50.992;6.798;2023-05-19T14:13:34;7.38;;;3.80;;
2177;SDS011;1095;50.992;6.798;2023-05-19T14:16:02;9.88;;;4.53;;
2177;SDS011;1095;50.992;6.798;2023-05-19T14:18:29;7.03;;;4.03;;
2177;SDS011;1095;50.992;6.798;2023-05-19T14:20:56;8.85;;;4.28;;
2177;SDS011;1095;50.992;6.798;2023-05-19T14:23:26;9.55;;;3.97;;
2177;SDS011;1095;50.992;6.798;2023-05-19T14:25:54;10.95;;;4.10;;
2177;SDS011;1095;50.992;6.798;2023-05-19T14:28:21;8.05;;;3.63;;
2177;SDS011;1095;50.992;6.798;2023-05-19T14:30:47;7.10;;;3.75;;
2177;SDS011;1095;50.992;6.798;2023-05-19T14:33:15;10.93;;;3.75;;
2177;SDS011;1095;50.992;6.798;2023-05-19T14:35:43;9.23;;;4.60;;
2177;SDS011;1095;50.992;6.798;2023-05-19T14:38:10;11.45;;;4.18;;
2177;SDS011;1095;50.992;6.798;2023-05-19T14:40:37;7.78;;;4.07;;
2177;SDS011;1095;50.992;6.798;2023-05-19T14:43:05;9.77;;;4.13;;
2177;SDS011;1095;50.992;6.798;2023-05-19T14:45:32;8.65;;;4.30;;
2177;SDS011;1095;50.992;6.798;2023-05-19T14:47:59;9.18;;;4.50;;
2177;SDS011;1095;50.992;6.798;2023-05-19T14:50:27;4.85;;;3.30;;
2177;SDS011;1095;50.992;6.798;2023-05-19T14:52:54;9.27;;;4.07;;
2177;SDS011;1095;50.992;6.798;2023-05-19T14:55:21;9.55;;;3.88;;
2177;SDS011;1095;50.992;6.798;2023-05-19T14:57:48;6.60;;;3.70;;
2177;SDS011;1095;50.992;6.798;2023-05-19T15:00:15;7.43;;;4.03;;
2177;SDS011;1095;50.992;6.798;2023-05-19T15:02:42;6.80;;;3.60;;
2177;SDS011;1095;50.992;6.798;2023-05-19T15:05:08;8.57;;;3.97;;
2177;SDS011;1095;50.992;6.798;2023-05-19T15:07:37;9.30;;;3.70;;
2177;SDS011;1095;50.992;6.798;2023-05-19T15:10:03;9.20;;;3.40;;
2177;SDS011;1095;50.992;6.798;2023-05-19T15:12:31;8.43;;;3.72;;
2177;SDS011;1095;50.992;6.798;2023-05-19T15:14:58;7.05;;;3.60;;
2177;SDS011;1095;50.992;6.798;2023-05-19T15:17:24;9.38;;;3.85;;
2177;SDS011;1095;50.992;6.798;2023-05-19T15:19:51;8.30;;;3.90;;
2177;SDS011;1095;50.992;6.798;2023-05-19T15:22:18;10.75;;;3.75;;
2177;SDS011;1095;50.992;6.798;2023-05-19T15:24:46;8.52;;;3.80;;
2177;SDS011;1095;50.992;6.798;2023-05-19T15:27:13;8.27;;;3.50;;
2177;SDS011;1095;50.992;6.798;2023-05-19T15:29:40;5.50;;;3.42;;
2177;SDS011;1095;50.992;6.798;2023-05-19T15:32:07;5.43;;;3.63;;
2177;SDS011;1095;50.992;6.798;2023-05-19T15:34:33;7.28;;;3.67;;
2177;SDS011;1095;50.992;6.798;2023-05-19T15:37:00;6.50;;;3.30;;
2177;SDS011;1095;50.992;6.798;2023-05-19T15:39:28;8.02;;;3.70;;
2177;SDS011;1095;50.992;6.798;2023-05-19T15:41:56;9.82;;;4.18;;
2177;SDS011;1095;50.992;6.798;2023-05-19T15:44:22;6.47;;;3.67;;
2177;SDS011;1095;50.992;6.798;2023-05-19T15:46:49;6.13;;;3.22;;
2177;SDS011;1095;50.992;6.798;2023-05-19T15:49:16;8.35;;;3.75;;
2177;SDS011;1095;50.992;6.798;2023-05-19T15:51:42;8.70;;;3.25;;
2177;SDS011;1095;50.992;6.798;2023-05-19T15:54:09;7.80;;;3.58;;
2177;SDS011;1095;50.992;6.798;2023-05-19T15:56:36;6.88;;;3.78;;
2177;SDS011;1095;50.992;6.798;2023-05-19T15:59:04;5.85;;;3.35;;
2177;SDS011;1095;50.992;6.798;2023-05-19T16:01:31;6.55;;;3.28;;
2177;SDS011;1095;50.992;6.798;2023-05-19T16:03:58;5.75;;;3.13;;
2177;SDS011;1095;50.992;6.798;2023-05-19T16:06:27;8.27;;;3.50;;
2177;SDS011;1095;50.992;6.798;2023-05-19T16:08:54;9.45;;;3.80;;
2177;SDS011;1095;50.992;6.798;2023-05-19T16:11:20;5.22;;;3.28;;
2177;SDS011;1095;50.992;6.798;2023-05-19T16:13:47;5.63;;;3.35;;
2177;SDS011;1095;50.992;6.798;2023-05-19T16:16:15;6.35;;;3.60;;
2177;SDS011;1095;50.992;6.798;2023-05-19T16:18:42;5.80;;;3.50;;
2177;SDS011;1095;50.992;6.798;2023-05-19T16:21:09;11.27;;;3.72;;
2177;SDS011;1095;50.992;6.798;2023-05-19T16:23:35;7.45;;;3.58;;
2177;SDS011;1095;50.992;6.798;2023-05-19T16:26:02;12.05;;;3.60;;
2177;SDS011;1095;50.992;6.798;2023-05-19T16:28:29;6.75;;;3.20;;
2177;SDS011;1095;50.992;6.798;2023-05-19T16:30:56;5.88;;;3.50;;
2177;SDS011;1095;50.992;6.798;2023-05-19T16:33:25;7.00;;;3.13;;
2177;SDS011;1095;50.992;6.798;2023-05-19T16:35:51;6.45;;;3.53;;
2177;SDS011;1095;50.992;6.798;2023-05-19T16:38:18;7.60;;;3.70;;
2177;SDS011;1095;50.992;6.798;2023-05-19T16:40:44;8.68;;;3.42;;
2177;SDS011;1095;50.992;6.798;2023-05-19T16:43:11;5.22;;;3.47;;
2177;SDS011;1095;50.992;6.798;2023-05-19T16:45:38;4.63;;;3.53;;
2177;SDS011;1095;50.992;6.798;2023-05-19T16:48:05;6.22;;;4.00;;
2177;SDS011;1095;50.992;6.798;2023-05-19T16:50:33;5.32;;;3.38;;
2177;SDS011;1095;50.992;6.798;2023-05-19T16:52:59;8.95;;;3.55;;
2177;SDS011;1095;50.992;6.798;2023-05-19T16:55:26;6.88;;;3.67;;
2177;SDS011;1095;50.992;6.798;2023-05-19T16:57:53;8.70;;;3.60;;
2177;SDS011;1095;50.992;6.798;2023-05-19T17:00:19;7.75;;;3.42;;
2177;SDS011;1095;50.992;6.798;2023-05-19T17:02:46;6.68;;;3.67;;